Redcrest, California
Current Conditions -  °F | °C
As of 2:30 AM on Saturday 25 Oct 2014 (Local Time) from KFOT Reporting Station
Broken Clouds Broken Clouds  
Wind Chill: 57°   Ceiling: 3000
Heat Index: 57°   Visibility: 4mi
Dew Point: 54°   Wind: 24mph
Humidity: 88%   Direction: 160°SSE
Pressure: 29.66"   Gusts: 46mph
Location:  40.4°N, 123.95°W
Report Text: KFOT 250930Z AUTO 16021G40KT 4SM BKN030 BKN036 14/12 A2966 RMK AO1 P0008
Loading
Personal Weather Stations






























Interactive Weather Map
Tropical Storm Tracking
New forecast layout! Learn more

10-Day Weather Forecast

Advertisements
Track Severe Weather on mobile